Terminal Aerodrome Forecast
Issued by NWS

Home | Current Version | Previous Version | Graphics & Text | Print | Product List | Glossary On
Versions: 1 2 3 4 5 6 7 8 9 10 11 12 13 14
000
FTUS43 KBIS 251100
TAFMOT
TAF
KMOT 251127Z 2512/2612 01005KT 3SM -SN BR OVC003
     FM251500 VRB04KT 3SM BR BKN008 OVC015
     FM251900 21010KT P6SM SCT011 OVC025
     FM252200 21009KT P6SM SCT020 OVC090
     FM260200 26014G21KT P6SM BKN050 OVC080
     FM260600 27017G24KT P6SM BKN070=

USA.gov is the U.S. government's official web portal to all federal, state and local government web resources and services.